Time;durP1;ratioP1;P1;durP2;ratioP2;P2;SDS_P1;SDS_P2;PMS_P1;PMS_P2;Temp;Humidity;BMP_temperature;BMP_pressure;BME280_temperature;BME280_humidity;BME280_pressure;Samples;Min_cycle;Max_cycle;Signal;HPM_P1;HPM_P2
2023/09/30 00:00:58;;;;;;;25.58;8.07;;;;;;;12.93;100.00;102186.38;4953834;28;20496;-78
2023/09/30 00:03:24;;;;;;;25.92;8.40;;;;;;;12.83;100.00;102185.25;4953194;28;20030;-77
2023/09/30 00:05:49;;;;;;;25.65;8.88;;;;;;;12.78;100.00;102182.81;4952992;28;20066;-78
2023/09/30 00:08:15;;;;;;;30.70;9.10;;;;;;;12.86;100.00;102190.56;4952651;28;20031;-78
2023/09/30 00:10:40;;;;;;;27.30;9.57;;;;;;;12.93;100.00;102197.38;4971473;28;20026;-78
2023/09/30 00:13:09;;;;;;;29.70;9.63;;;;;;;12.94;100.00;102209.28;4975287;28;20539;-78
2023/09/30 00:15:34;;;;;;;26.27;8.90;;;;;;;13.02;100.00;102215.16;4956108;28;20113;-77
2023/09/30 00:18:01;;;;;;;25.40;10.00;;;;;;;12.86;100.00;102213.41;4970397;28;20134;-78
2023/09/30 00:20:27;;;;;;;27.13;9.27;;;;;;;12.83;100.00;102221.00;4952624;28;20033;-78
2023/09/30 00:22:52;;;;;;;31.05;9.57;;;;;;;12.80;100.00;102210.19;4976586;28;20030;-78
2023/09/30 00:25:18;;;;;;;29.83;10.18;;;;;;;12.93;100.00;102202.00;4953063;28;20031;-77
2023/09/30 00:27:43;;;;;;;23.52;9.75;;;;;;;12.88;100.00;102200.44;4954904;28;20536;-77
2023/09/30 00:30:10;;;;;;;29.10;9.15;;;;;;;12.87;100.00;102204.19;4952956;28;20034;-78
2023/09/30 00:32:36;;;;;;;31.17;9.38;;;;;;;12.83;100.00;102218.25;4960579;28;20088;-78
2023/09/30 00:35:02;;;;;;;26.27;9.73;;;;;;;12.95;100.00;102209.16;4951433;28;20113;-78
2023/09/30 00:37:28;;;;;;;22.67;9.05;;;;;;;12.97;100.00;102209.06;4955223;28;20034;-78
2023/09/30 00:39:53;;;;;;;27.42;9.55;;;;;;;12.81;100.00;102209.22;4950878;28;20046;-78
2023/09/30 00:42:20;;;;;;;34.10;9.65;;;;;;;12.73;100.00;102217.09;4958447;28;20234;-78
2023/09/30 00:44:46;;;;;;;28.63;10.20;;;;;;;12.72;100.00;102205.19;4963930;28;20058;-78
2023/09/30 00:47:12;;;;;;;23.75;11.18;;;;;;;12.74;100.00;102192.25;4976718;28;20061;-78
2023/09/30 00:49:38;;;;;;;34.13;10.88;;;;;;;12.75;100.00;102210.50;4975043;28;20045;-78
2023/09/30 00:52:03;;;;;;;23.67;10.85;;;;;;;12.92;100.00;102227.72;4957455;28;20023;-78
2023/09/30 00:54:30;;;;;;;25.75;11.00;;;;;;;12.80;100.00;102232.19;4954923;28;20080;-78
2023/09/30 00:56:56;;;;;;;30.33;10.43;;;;;;;12.67;100.00;102233.00;4963726;28;20523;-78
2023/09/30 00:59:22;;;;;;;29.35;10.75;;;;;;;12.63;100.00;102227.81;4962297;28;20034;-78
2023/09/30 01:01:48;;;;;;;26.73;12.35;;;;;;;12.64;100.00;102218.56;4972205;28;20490;-78
2023/09/30 01:04:15;;;;;;;33.00;11.27;;;;;;;12.64;100.00;102218.56;4971066;28;20049;-78
2023/09/30 01:06:40;;;;;;;30.15;11.35;;;;;;;12.75;100.00;102217.88;4954010;28;20477;-78
2023/09/30 01:09:07;;;;;;;25.92;10.85;;;;;;;12.62;100.00;102209.56;4963902;28;20035;-78
2023/09/30 01:11:33;;;;;;;32.67;11.65;;;;;;;12.61;100.00;102216.03;4945460;28;20549;-78
2023/09/30 01:14:00;;;;;;;27.23;11.90;;;;;;;12.58;100.00;102222.63;4958816;28;20070;-78
2023/09/30 01:16:25;;;;;;;33.83;11.18;;;;;;;12.62;100.00;102234.28;4968555;28;20058;-77
2023/09/30 01:18:52;;;;;;;32.65;12.73;;;;;;;12.77;100.00;102247.00;4973603;28;20022;-78
2023/09/30 01:21:18;;;;;;;29.65;13.30;;;;;;;12.80;100.00;102244.06;4936948;28;20071;-78
2023/09/30 01:23:46;;;;;;;25.17;12.05;;;;;;;12.76;100.00;102242.50;4958577;28;20023;-78
2023/09/30 01:26:12;;;;;;;31.13;11.90;;;;;;;12.82;100.00;102238.47;4967496;28;20031;-78
2023/09/30 01:28:39;;;;;;;29.75;11.98;;;;;;;12.87;100.00;102239.03;4954190;28;20034;-78
2023/09/30 01:31:05;;;;;;;29.75;12.95;;;;;;;12.85;100.00;102247.41;4932817;28;20038;-78
2023/09/30 01:33:31;;;;;;;32.45;12.48;;;;;;;12.92;100.00;102257.97;4937013;28;20081;-78
2023/09/30 01:35:57;;;;;;;26.65;11.80;;;;;;;12.88;100.00;102260.91;4967520;28;20094;-78
2023/09/30 01:38:22;;;;;;;32.72;12.45;;;;;;;12.97;100.00;102259.44;4959886;28;20429;-78
2023/09/30 01:40:48;;;;;;;30.00;12.45;;;;;;;12.95;100.00;102255.03;4953051;28;20073;-78
2023/09/30 01:43:15;;;;;;;26.65;11.63;;;;;;;12.89;100.00;102261.81;4942836;28;20030;-77
2023/09/30 01:45:40;;;;;;;22.80;11.98;;;;;;;12.84;100.00;102259.38;4976049;28;20105;-77
2023/09/30 01:48:06;;;;;;;23.85;11.75;;;;;;;12.78;100.00;102267.16;4976175;28;20030;-78
2023/09/30 01:50:32;;;;;;;31.52;13.23;;;;;;;12.60;100.00;102250.00;4966849;28;20110;-77
2023/09/30 01:52:57;;;;;;;30.00;13.98;;;;;;;12.69;100.00;102263.13;4951009;28;20114;-78
2023/09/30 01:55:23;;;;;;;23.48;12.77;;;;;;;12.74;100.00;102269.22;4949985;28;20069;-78
2023/09/30 01:57:48;;;;;;;36.58;12.88;;;;;;;12.79;100.00;102261.56;4954973;28;20038;-78
2023/09/30 02:00:13;;;;;;;29.30;12.23;;;;;;;12.83;100.00;102243.84;4932021;28;20035;-78
2023/09/30 02:02:39;;;;;;;28.40;13.40;;;;;;;12.81;100.00;102232.09;4961314;28;20100;-78
2023/09/30 02:05:07;;;;;;;27.20;12.73;;;;;;;12.62;100.00;102232.41;4941850;28;20043;-78
2023/09/30 02:07:34;;;;;;;29.58;11.43;;;;;;;12.36;100.00;102228.63;4974525;28;20030;-78
2023/09/30 02:09:59;;;;;;;29.08;11.30;;;;;;;12.35;100.00;102220.47;4958439;28;20027;-78
2023/09/30 02:12:29;;;;;;;26.70;12.13;;;;;;;12.14;100.00;102229.13;4961386;28;20062;-78
2023/09/30 02:14:54;;;;;;;31.13;11.95;;;;;;;12.09;100.00;102234.91;4924038;28;20031;-77
2023/09/30 02:17:20;;;;;;;22.20;10.68;;;;;;;12.07;100.00;102241.50;4940964;28;20049;-77
2023/09/30 02:19:46;;;;;;;29.58;11.70;;;;;;;11.72;100.00;102236.28;4946680;28;20042;-78
2023/09/30 02:22:12;;;;;;;27.50;12.70;;;;;;;11.72;100.00;102241.78;4955557;28;20027;-77
2023/09/30 02:24:40;;;;;;;31.60;13.90;;;;;;;11.71;100.00;102251.00;4971470;28;20035;-77
2023/09/30 02:27:05;;;;;;;33.00;14.18;;;;;;;11.81;100.00;102254.06;4941916;28;20114;-77
2023/09/30 02:29:31;;;;;;;33.85;14.40;;;;;;;11.85;100.00;102261.13;4958460;28;20138;-78
2023/09/30 02:31:56;;;;;;;37.20;14.00;;;;;;;11.99;100.00;102268.53;4973237;28;20023;-77
2023/09/30 02:34:22;;;;;;;30.90;14.38;;;;;;;11.93;100.00;102273.41;4956871;28;20485;-77
2023/09/30 02:36:47;;;;;;;29.30;14.10;;;;;;;12.08;100.00;102267.94;4966864;28;20059;-77
2023/09/30 02:39:16;;;;;;;28.40;13.98;;;;;;;11.91;100.00;102263.50;4953103;28;20031;-77
2023/09/30 02:41:42;;;;;;;38.90;15.55;;;;;;;12.05;100.00;102260.81;4974174;28;20067;-77
2023/09/30 02:44:07;;;;;;;37.50;15.02;;;;;;;12.07;100.00;102264.31;4961212;28;20037;-77
2023/09/30 02:46:33;;;;;;;29.45;14.32;;;;;;;11.82;100.00;102259.44;4961375;28;20405;-84
2023/09/30 02:49:01;;;;;;;31.75;14.02;;;;;;;11.94;100.00;102263.34;4957509;28;20046;-88
2023/09/30 02:51:26;;;;;;;27.85;14.32;;;;;;;11.83;100.00;102255.72;4935864;28;20022;-87
2023/09/30 02:53:51;;;;;;;34.63;14.73;;;;;;;11.67;100.00;102247.53;4963203;28;20148;-87
2023/09/30 02:56:18;;;;;;;32.70;14.65;;;;;;;11.70;100.00;102254.72;4921302;28;20051;-88
2023/09/30 02:58:44;;;;;;;37.00;14.52;;;;;;;11.73;100.00;102249.03;4934778;28;20039;-87
2023/09/30 03:01:16;;;;;;;44.83;16.38;;;;;;;11.73;100.00;102257.28;4924255;28;20436;-88
2023/09/30 03:03:44;;;;;;;37.05;14.82;;;;;;;11.72;100.00;102252.75;4954470;28;20031;-88
2023/09/30 03:06:10;;;;;;;40.88;16.65;;;;;;;11.69;100.00;102253.84;4963620;28;20038;-88
2023/09/30 03:08:35;;;;;;;32.05;15.13;;;;;;;11.77;100.00;102247.84;4945511;28;20484;-88
2023/09/30 03:11:01;;;;;;;40.92;16.55;;;;;;;11.71;100.00;102245.53;4970528;28;20037;-86
2023/09/30 03:13:27;;;;;;;34.40;14.98;;;;;;;11.64;100.00;102246.84;4926679;28;20039;-87
2023/09/30 03:15:52;;;;;;;35.47;15.65;;;;;;;11.61;100.00;102263.50;4934535;29;20031;-87
2023/09/30 03:18:22;;;;;;;36.35;15.65;;;;;;;11.67;100.00;102254.91;4958048;28;20066;-87
2023/09/30 03:20:50;;;;;;;40.25;15.80;;;;;;;11.69;100.00;102242.88;4955492;28;20110;-87
2023/09/30 03:23:15;;;;;;;35.38;16.08;;;;;;;11.58;100.00;102243.50;4958167;28;20039;-87
2023/09/30 03:25:42;;;;;;;39.13;15.32;;;;;;;11.42;100.00;102242.69;4968233;28;20043;-87
2023/09/30 03:28:07;;;;;;;31.92;15.30;;;;;;;11.57;100.00;102251.84;4933547;28;20513;-87
2023/09/30 03:30:33;;;;;;;39.15;16.60;;;;;;;11.57;100.00;102255.44;4959068;28;20022;-87
2023/09/30 03:32:58;;;;;;;45.92;16.77;;;;;;;11.62;100.00;102244.19;4968150;28;20069;-88
2023/09/30 03:35:24;;;;;;;45.22;17.80;;;;;;;11.42;100.00;102239.94;4955693;28;20129;-87
2023/09/30 03:37:50;;;;;;;42.80;17.35;;;;;;;11.33;100.00;102243.22;4925081;28;20038;-87
2023/09/30 03:40:19;;;;;;;42.90;17.60;;;;;;;11.56;100.00;102234.50;4958521;28;21921;-87
2023/09/30 03:42:45;;;;;;;40.58;17.70;;;;;;;11.55;100.00;102235.47;4938545;28;20046;-88
2023/09/30 03:45:19;;;;;;;39.78;17.10;;;;;;;11.54;100.00;102230.97;4977650;28;20047;-88
2023/09/30 03:47:45;;;;;;;42.22;18.88;;;;;;;11.58;100.00;102221.56;4951449;28;20110;-87
2023/09/30 03:50:13;;;;;;;44.47;18.85;;;;;;;11.51;100.00;102222.03;4937439;28;20043;-87
2023/09/30 03:52:39;;;;;;;40.58;18.75;;;;;;;11.61;100.00;102230.56;4947496;28;20057;-88
2023/09/30 03:55:06;;;;;;;40.20;18.92;;;;;;;11.65;100.00;102235.78;4942496;28;20477;-88
2023/09/30 03:57:33;;;;;;;49.20;20.58;;;;;;;11.66;100.00;102233.91;4954547;28;20062;-77
2023/09/30 04:00:00;;;;;;;38.10;20.38;;;;;;;11.70;100.00;102235.50;4951405;28;20035;-77
2023/09/30 04:02:25;;;;;;;44.25;20.98;;;;;;;11.80;100.00;102233.94;4932634;28;20171;-77
2023/09/30 04:04:53;;;;;;;47.60;20.33;;;;;;;11.59;100.00;102234.31;4971812;28;20113;-77
2023/09/30 04:07:18;;;;;;;44.85;20.30;;;;;;;11.61;100.00;102228.75;4969875;28;20038;-76
2023/09/30 04:09:44;;;;;;;48.15;20.65;;;;;;;11.45;100.00;102231.53;4927269;28;20511;-77
2023/09/30 04:12:09;;;;;;;40.70;21.30;;;;;;;11.47;100.00;102226.81;4944761;28;20083;-77
2023/09/30 04:14:34;;;;;;;49.50;22.17;;;;;;;11.69;100.00;102236.47;4932774;28;20544;-77
2023/09/30 04:17:00;;;;;;;50.95;22.58;;;;;;;11.58;100.00;102235.28;4968095;28;20102;-77
2023/09/30 04:19:26;;;;;;;53.97;24.63;;;;;;;11.71;100.00;102248.25;4967727;28;20046;-77
2023/09/30 04:21:51;;;;;;;52.20;24.70;;;;;;;11.45;100.00;102241.63;4952532;28;20132;-77
2023/09/30 04:24:18;;;;;;;57.85;26.27;;;;;;;11.39;100.00;102242.84;4952524;28;20038;-77
2023/09/30 04:26:44;;;;;;;60.15;28.65;;;;;;;11.49;100.00;102252.28;4951838;28;20058;-77
2023/09/30 04:29:10;;;;;;;67.07;29.85;;;;;;;11.62;100.00;102246.94;4973565;28;20418;-77
2023/09/30 04:31:39;;;;;;;62.22;29.75;;;;;;;11.42;100.00;102230.84;4939309;28;21172;-77
2023/09/30 04:34:04;;;;;;;60.13;28.40;;;;;;;11.49;100.00;102227.59;4969087;28;20083;-77
2023/09/30 04:36:30;;;;;;;61.45;28.13;;;;;;;11.65;100.00;102235.78;4941615;28;20031;-77
2023/09/30 04:38:56;;;;;;;62.70;26.67;;;;;;;11.65;100.00;102232.16;4949105;28;20201;-77
2023/09/30 04:41:21;;;;;;;62.58;27.40;;;;;;;11.59;100.00;102237.06;4956379;28;20553;-77
2023/09/30 04:43:47;;;;;;;54.20;24.80;;;;;;;11.49;100.00;102246.81;4943678;28;20030;-77
2023/09/30 04:46:13;;;;;;;47.55;23.88;;;;;;;11.48;100.00;102246.91;4957008;28;20033;-77
2023/09/30 04:48:39;;;;;;;53.88;23.92;;;;;;;11.51;100.00;102241.22;4950461;28;20054;-77
2023/09/30 04:51:08;;;;;;;48.42;22.98;;;;;;;11.61;100.00;102253.44;4966815;28;20038;-77
2023/09/30 04:53:34;;;;;;;46.67;21.48;;;;;;;11.65;100.00;102263.22;4956834;28;20041;-77
2023/09/30 04:56:00;;;;;;;50.30;21.98;;;;;;;11.58;100.00;102254.47;4947168;28;20043;-77
2023/09/30 04:58:27;;;;;;;57.13;20.83;;;;;;;11.48;100.00;102264.25;4951967;28;20027;-76
2023/09/30 05:00:52;;;;;;;49.65;21.45;;;;;;;11.63;100.00;102258.81;4966685;28;20082;-77
2023/09/30 05:03:19;;;;;;;41.03;20.27;;;;;;;11.58;100.00;102264.59;4956733;28;20576;-77
2023/09/30 05:05:44;;;;;;;42.88;20.30;;;;;;;11.68;100.00;102262.16;4953579;28;20038;-77
2023/09/30 05:08:11;;;;;;;52.50;21.98;;;;;;;11.48;100.00;102266.09;4942755;28;20037;-87
2023/09/30 05:10:36;;;;;;;39.85;19.73;;;;;;;11.52;100.00;102271.31;4930080;28;20034;-87
2023/09/30 05:13:02;;;;;;;41.78;19.92;;;;;;;11.59;100.00;102269.06;4955383;28;20034;-87
2023/09/30 05:15:29;;;;;;;38.40;18.45;;;;;;;11.35;100.00;102265.97;4918070;28;20464;-88
2023/09/30 05:17:55;;;;;;;46.33;18.27;;;;;;;11.24;100.00;102269.34;4957151;28;20453;-87
2023/09/30 05:20:20;;;;;;;69.22;19.80;;;;;;;11.54;100.00;102268.47;4940131;28;20501;-88
2023/09/30 05:22:46;;;;;;;41.38;17.85;;;;;;;11.47;100.00;102265.22;4952674;28;20112;-86
2023/09/30 05:25:14;;;;;;;41.53;18.05;;;;;;;11.41;100.00;102273.81;4980945;28;20400;-85
2023/09/30 05:27:39;;;;;;;37.42;18.08;;;;;;;11.28;100.00;102275.53;4975128;28;20130;-86
2023/09/30 05:30:06;;;;;;;31.00;16.00;;;;;;;11.16;100.00;102286.22;4919171;28;20117;-85
2023/09/30 05:32:32;;;;;;;36.10;16.42;;;;;;;10.83;100.00;102286.34;4969614;28;20093;-85
2023/09/30 05:35:00;;;;;;;40.22;18.08;;;;;;;11.13;100.00;102285.53;4931858;28;20035;-86
2023/09/30 05:37:26;;;;;;;35.63;16.98;;;;;;;11.27;100.00;102296.59;4938143;28;20042;-84
2023/09/30 05:39:51;;;;;;;43.00;20.52;;;;;;;11.16;100.00;102288.97;4956413;28;20035;-85
2023/09/30 05:42:18;;;;;;;41.05;17.73;;;;;;;10.89;100.00;102283.25;4947128;28;20037;-87
2023/09/30 05:44:44;;;;;;;37.75;16.67;;;;;;;10.90;100.00;102278.66;4933854;28;20023;-85
2023/09/30 05:47:10;;;;;;;43.72;17.88;;;;;;;11.04;100.00;102278.75;4974745;28;20035;-84
2023/09/30 05:49:36;;;;;;;43.47;17.20;;;;;;;11.14;100.00;102279.97;4910655;28;20055;-85
2023/09/30 05:52:02;;;;;;;37.70;16.35;;;;;;;11.27;100.00;102298.44;4915552;28;20039;-84
2023/09/30 05:54:28;;;;;;;41.42;17.35;;;;;;;11.14;100.00;102301.03;4963471;28;20039;-85
2023/09/30 05:56:56;;;;;;;46.13;18.30;;;;;;;11.11;100.00;102290.22;4952661;28;20393;-86
2023/09/30 05:59:24;;;;;;;47.40;20.10;;;;;;;11.31;100.00;102294.53;4953326;28;20038;-87
2023/09/30 06:01:50;;;;;;;45.72;18.65;;;;;;;11.35;100.00;102294.28;4919106;28;20042;-85
2023/09/30 06:04:16;;;;;;;39.63;18.27;;;;;;;11.32;100.00;102290.84;4927831;28;20066;-86
2023/09/30 06:06:43;;;;;;;42.40;19.15;;;;;;;11.28;100.00;102295.63;4959030;28;20038;-85
2023/09/30 06:09:09;;;;;;;51.92;19.33;;;;;;;11.36;100.00;102303.38;4956829;28;20054;-85
2023/09/30 06:11:35;;;;;;;45.10;18.95;;;;;;;11.61;100.00;102299.16;4966336;28;20027;-85
2023/09/30 06:14:06;;;;;;;43.42;18.30;;;;;;;11.66;100.00;102299.75;4962750;28;20042;-85
2023/09/30 06:16:31;;;;;;;41.53;17.55;;;;;;;11.54;100.00;102302.28;4937999;28;20062;-85
2023/09/30 06:18:57;;;;;;;45.50;18.38;;;;;;;11.60;100.00;102309.25;4946295;28;20069;-85
2023/09/30 06:21:25;;;;;;;47.38;19.60;;;;;;;11.82;100.00;102303.34;4950651;28;20354;-87
2023/09/30 06:23:53;;;;;;;50.33;19.83;;;;;;;11.84;100.00;102300.50;4937336;28;20065;-85
2023/09/30 06:26:20;;;;;;;45.70;19.55;;;;;;;11.70;100.00;102304.09;4950597;28;20401;-86
2023/09/30 06:28:47;;;;;;;42.15;18.70;;;;;;;11.78;100.00;102315.50;4953507;28;20117;-87
2023/09/30 06:31:13;;;;;;;39.33;18.00;;;;;;;11.84;100.00;102303.25;4948777;28;20026;-86
2023/09/30 06:33:39;;;;;;;43.25;19.05;;;;;;;11.91;100.00;102311.06;4970801;28;20092;-86
2023/09/30 06:36:09;;;;;;;39.88;18.80;;;;;;;11.95;100.00;102298.91;4966352;28;20394;-85
2023/09/30 06:38:34;;;;;;;43.72;19.00;;;;;;;12.09;100.00;102297.19;4934444;28;20049;-85
2023/09/30 06:41:01;;;;;;;49.17;23.35;;;;;;;12.35;100.00;102289.13;4940737;28;20034;-83
2023/09/30 06:43:27;;;;;;;54.25;21.50;;;;;;;12.24;100.00;102292.59;4951301;28;20038;-83
2023/09/30 06:45:54;;;;;;;45.05;19.35;;;;;;;12.27;100.00;102307.00;4953190;28;20027;-83
2023/09/30 06:48:19;;;;;;;50.08;20.48;;;;;;;12.22;100.00;102305.53;4954137;28;20047;-85
2023/09/30 06:50:48;;;;;;;44.42;21.40;;;;;;;12.51;100.00;102295.44;4954649;28;20030;-84
2023/09/30 06:53:14;;;;;;;44.08;20.75;;;;;;;12.54;100.00;102295.22;4972761;28;20039;-86
2023/09/30 06:55:40;;;;;;;48.50;21.88;;;;;;;12.67;100.00;102304.47;4948966;28;20039;-86
2023/09/30 06:58:07;;;;;;;63.67;22.25;;;;;;;12.83;100.00;102311.69;4951885;28;20051;-85
2023/09/30 07:00:34;;;;;;;36.08;20.42;;;;;;;12.84;100.00;102324.47;4939691;28;20041;-86
2023/09/30 07:03:00;;;;;;;40.58;19.67;;;;;;;13.16;100.00;102321.47;4930371;28;20038;-86
2023/09/30 07:05:25;;;;;;;45.90;20.80;;;;;;;12.88;100.00;102328.78;4954021;28;20046;-85
2023/09/30 07:07:51;;;;;;;39.58;20.40;;;;;;;12.91;100.00;102339.56;4954128;28;20047;-86
2023/09/30 07:10:16;;;;;;;38.35;19.00;;;;;;;13.00;100.00;102344.47;4950305;28;20126;-86
2023/09/30 07:12:42;;;;;;;44.90;21.70;;;;;;;13.01;100.00;102357.22;4969683;28;20027;-86
2023/09/30 07:15:08;;;;;;;45.85;22.05;;;;;;;13.03;100.00;102359.88;4942305;28;20034;-86
2023/09/30 07:17:34;;;;;;;42.58;21.05;;;;;;;13.24;100.00;102357.59;4933980;29;20113;-86
2023/09/30 07:19:59;;;;;;;43.30;21.48;;;;;;;13.17;100.00;102356.25;4973055;28;20114;-87
2023/09/30 07:22:25;;;;;;;43.55;21.25;;;;;;;13.16;100.00;102358.09;4938758;28;20035;-86
2023/09/30 07:24:51;;;;;;;48.20;21.55;;;;;;;13.31;100.00;102358.06;4978786;28;20081;-86
2023/09/30 07:27:16;;;;;;;46.17;23.38;;;;;;;13.72;100.00;102351.66;4973279;28;20094;-87
2023/09/30 07:29:43;;;;;;;49.42;22.05;;;;;;;13.75;100.00;102357.81;4948898;28;20094;-86
2023/09/30 07:32:09;;;;;;;52.03;23.13;;;;;;;13.73;100.00;102353.44;4949151;28;20065;-86
2023/09/30 07:34:35;;;;;;;49.67;23.83;;;;;;;13.95;100.00;102367.50;4962744;28;20027;-86
2023/09/30 07:37:00;;;;;;;44.35;22.10;;;;;;;14.32;100.00;102377.81;4956603;28;20027;-86
2023/09/30 07:39:25;;;;;;;57.05;22.95;;;;;;;13.84;100.00;102372.84;4960972;28;20054;-86
2023/09/30 07:41:51;;;;;;;45.60;22.55;;;;;;;14.23;100.00;102390.34;4960266;28;20509;-86
2023/09/30 07:44:16;;;;;;;43.65;21.42;;;;;;;14.11;100.00;102389.31;4971083;28;20039;-86
2023/09/30 07:46:43;;;;;;;43.35;21.85;;;;;;;14.14;100.00;102394.63;4948242;28;20033;-86
2023/09/30 07:49:11;;;;;;;51.13;21.67;;;;;;;14.80;100.00;102397.34;4960574;28;20050;-87
2023/09/30 07:51:39;;;;;;;48.63;20.95;;;;;;;14.72;100.00;102401.66;4961565;28;20390;-87
2023/09/30 07:54:05;;;;;;;38.83;19.10;;;;;;;14.74;100.00;102402.44;4949243;28;20042;-87
2023/09/30 07:56:32;;;;;;;37.53;18.58;;;;;;;14.86;100.00;102399.66;4953497;28;20055;-86
2023/09/30 07:58:57;;;;;;;41.85;18.05;;;;;;;15.20;100.00;102399.97;4964362;28;20039;-87
2023/09/30 08:01:23;;;;;;;47.05;20.08;;;;;;;15.03;100.00;102392.03;4952228;28;20101;-87
2023/09/30 08:03:48;;;;;;;46.20;18.50;;;;;;;15.57;100.00;102391.66;4938410;28;20038;-87
2023/09/30 08:06:14;;;;;;;45.95;16.52;;;;;;;15.38;100.00;102386.66;4940522;28;20027;-87
2023/09/30 08:08:40;;;;;;;38.40;16.27;;;;;;;15.66;100.00;102376.31;4951353;28;20061;-87
2023/09/30 08:11:06;;;;;;;38.78;14.70;;;;;;;15.60;100.00;102382.28;4950985;28;20039;-87
2023/09/30 08:13:32;;;;;;;32.47;16.60;;;;;;;16.22;100.00;102385.88;4955369;28;20481;-88
2023/09/30 08:15:59;;;;;;;42.22;16.40;;;;;;;16.45;100.00;102393.19;4954523;28;20430;-87
2023/09/30 08:18:24;;;;;;;33.25;14.25;;;;;;;16.46;100.00;102399.59;4954477;28;20078;-87
2023/09/30 08:20:49;;;;;;;30.25;13.23;;;;;;;16.04;100.00;102382.66;4969753;28;20551;-88
2023/09/30 08:23:15;;;;;;;37.05;14.50;;;;;;;16.01;100.00;102389.28;4936767;29;20045;-88
2023/09/30 08:25:40;;;;;;;35.80;14.68;;;;;;;16.53;100.00;102384.31;4949151;28;20027;-88
2023/09/30 08:28:06;;;;;;;36.00;13.05;;;;;;;16.51;100.00;102383.53;4956073;28;20046;-88
2023/09/30 08:30:35;;;;;;;37.35;14.50;;;;;;;16.70;100.00;102378.28;4972710;28;20070;-88
2023/09/30 08:33:00;;;;;;;30.38;13.00;;;;;;;17.11;100.00;102375.94;4936509;28;20030;-87
2023/09/30 08:35:25;;;;;;;35.33;14.32;;;;;;;17.54;100.00;102374.22;4952770;28;20485;-88
2023/09/30 08:37:51;;;;;;;30.15;14.18;;;;;;;17.46;100.00;102369.31;4951075;28;20061;-88
2023/09/30 08:40:20;;;;;;;23.23;12.88;;;;;;;17.35;100.00;102361.94;4954315;28;20118;-87
2023/09/30 08:42:51;;;;;;;31.05;12.55;;;;;;;17.32;100.00;102367.72;4967818;28;20062;-88
2023/09/30 08:45:18;;;;;;;28.23;13.13;;;;;;;17.29;100.00;102368.00;4969513;28;20545;-88
2023/09/30 08:47:44;;;;;;;30.15;11.75;;;;;;;17.77;100.00;102364.84;4934476;28;20077;-76
2023/09/30 08:50:10;;;;;;;27.42;11.68;;;;;;;18.06;100.00;102361.47;4947085;28;20038;-76
2023/09/30 08:52:38;;;;;;;26.02;11.45;;;;;;;18.04;100.00;102355.19;4963292;28;20037;-76
2023/09/30 08:55:04;;;;;;;22.83;9.93;;;;;;;18.09;100.00;102361.22;4963487;28;20106;-76
2023/09/30 08:57:30;;;;;;;23.40;10.00;;;;;;;17.75;100.00;102364.09;4947967;28;20145;-76
2023/09/30 08:59:56;;;;;;;21.52;10.38;;;;;;;17.74;100.00;102355.91;4953927;28;20031;-76
2023/09/30 09:02:21;;;;;;;20.30;9.68;;;;;;;18.08;100.00;102355.78;4963642;28;20034;-76
2023/09/30 09:04:49;;;;;;;23.98;9.80;;;;;;;18.60;100.00;102339.22;4937122;28;20061;-76
2023/09/30 09:07:14;;;;;;;22.95;9.88;;;;;;;18.68;100.00;102342.19;4950762;28;20045;-76
2023/09/30 09:09:40;;;;;;;20.63;9.52;;;;;;;18.95;100.00;102343.50;4945871;28;20035;-76
2023/09/30 09:12:06;;;;;;;21.23;11.18;;;;;;;18.50;100.00;102355.81;4953054;28;20497;-77
2023/09/30 09:14:41;;;;;;;23.30;9.70;;;;;;;18.65;100.00;102357.19;4948087;28;20026;-76
2023/09/30 09:17:08;;;;;;;19.88;9.52;;;;;;;19.24;100.00;102363.91;4970451;28;20086;-76
2023/09/30 09:19:34;;;;;;;21.38;11.15;;;;;;;19.45;100.00;102358.25;4951551;28;20045;-76
2023/09/30 09:22:04;;;;;;;23.55;10.55;;;;;;;19.25;100.00;102365.69;4970708;28;20054;-76
2023/09/30 09:24:39;;;;;;;21.67;9.32;;;;;;;19.16;100.00;102380.41;4966724;28;20482;-76
2023/09/30 09:27:09;;;;;;;23.20;10.63;;;;;;;19.07;100.00;102381.22;4965389;28;20027;-77
2023/09/30 09:29:36;;;;;;;23.15;10.32;;;;;;;18.89;100.00;102386.59;4967009;28;20043;-76
2023/09/30 09:32:28;;;;;;;21.88;10.05;;;;;;;19.15;100.00;102380.53;4949966;28;20097;-76
2023/09/30 09:35:01;;;;;;;22.65;9.73;;;;;;;19.69;100.00;102386.69;4964955;28;20051;-76
2023/09/30 09:37:27;;;;;;;17.73;9.73;;;;;;;19.68;100.00;102393.25;4967548;28;20034;-76
2023/09/30 09:39:56;;;;;;;20.85;9.82;;;;;;;19.26;100.00;102395.19;4966466;28;20042;-76
2023/09/30 09:42:32;;;;;;;22.00;10.52;;;;;;;19.34;100.00;102404.72;4968317;28;20059;-77
2023/09/30 09:45:01;;;;;;;24.65;10.20;;;;;;;19.52;100.00;102407.72;4949277;28;20162;-76
2023/09/30 09:47:29;;;;;;;22.83;10.40;;;;;;;19.63;100.00;102410.38;4970683;28;20023;-76
2023/09/30 09:49:57;;;;;;;22.88;10.55;;;;;;;19.49;100.00;102408.88;4953700;28;20097;-76
2023/09/30 09:52:24;;;;;;;21.05;10.20;;;;;;;19.14;100.00;102412.13;4947450;28;20026;-77
2023/09/30 09:54:51;;;;;;;18.23;9.93;;;;;;;19.97;100.00;102405.34;4965340;28;20109;-76
2023/09/30 09:57:18;;;;;;;29.77;10.55;;;;;;;19.53;100.00;102413.13;4948107;28;20232;-77
2023/09/30 09:59:47;;;;;;;22.83;10.13;;;;;;;18.63;100.00;102409.19;4969359;28;20019;-76
2023/09/30 10:02:14;;;;;;;24.15;9.88;;;;;;;18.88;100.00;102398.69;4948887;28;20497;-76
2023/09/30 10:04:42;;;;;;;22.63;10.73;;;;;;;18.10;100.00;102392.56;4971346;28;20034;-76
2023/09/30 10:07:14;;;;;;;25.08;10.65;;;;;;;18.12;100.00;102396.97;4941081;28;21277;-76
2023/09/30 10:09:45;;;;;;;22.47;10.67;;;;;;;18.79;100.00;102400.38;4968907;28;20031;-76
2023/09/30 10:12:12;;;;;;;25.45;10.05;;;;;;;18.67;100.00;102401.47;4970331;28;20118;-76
2023/09/30 10:14:38;;;;;;;21.45;10.65;;;;;;;19.36;100.00;102394.34;4948889;29;20027;-76
2023/09/30 10:17:03;;;;;;;22.60;10.43;;;;;;;19.54;100.00;102395.41;4954260;28;20059;-76
2023/09/30 10:19:30;;;;;;;18.65;7.50;;;;;;;19.16;100.00;102390.63;4971274;28;20509;-77
2023/09/30 10:22:22;;;;;;;14.45;7.07;;;;;;;18.37;100.00;102401.25;4975150;28;20413;-76
2023/09/30 10:24:59;;;;;;;18.67;7.10;;;;;;;18.44;100.00;102398.81;4948071;28;20066;-77
2023/09/30 10:27:24;;;;;;;18.83;7.22;;;;;;;19.24;100.00;102413.03;4941808;28;20035;-76
2023/09/30 10:30:09;;;;;;;19.50;6.72;;;;;;;19.52;100.00;102419.69;4967732;28;20046;-77
2023/09/30 10:33:07;;;;;;;16.02;6.20;;;;;;;19.35;100.00;102409.25;4972577;28;20023;-76
2023/09/30 10:35:32;;;;;;;18.00;6.88;;;;;;;19.05;100.00;102414.72;4919319;28;20046;-76
2023/09/30 10:38:37;;;;;;;23.30;7.10;;;;;;;18.69;100.00;102404.97;4962511;28;20057;-76
2023/09/30 10:41:03;;;;;;;13.27;5.47;;;;;;;18.77;100.00;102401.50;4880947;29;20047;-76
2023/09/30 10:43:30;;;;;;;21.10;7.63;;;;;;;19.55;100.00;102387.97;4863569;29;20044;-76
2023/09/30 10:45:56;;;;;;;12.93;6.53;;;;;;;19.76;100.00;102386.00;4898298;28;20046;-76
2023/09/30 10:48:24;;;;;;;17.20;6.90;;;;;;;19.51;100.00;102387.38;4949096;28;20027;-76
2023/09/30 10:50:55;;;;;;;17.85;5.75;;;;;;;18.96;100.00;102384.13;4955477;28;20031;-76
2023/09/30 10:53:41;;;;;;;10.70;4.20;;;;;;;18.59;100.00;102390.16;4967603;28;20070;-76
2023/09/30 10:56:06;;;;;;;10.32;4.20;;;;;;;19.16;100.00;102388.72;4970784;28;20122;-76
2023/09/30 10:58:53;;;;;;;14.82;6.35;;;;;;;19.15;100.00;102375.88;4966038;28;20114;-76
2023/09/30 11:01:19;;;;;;;12.48;4.18;;;;;;;18.82;100.00;102374.22;4954856;28;20077;-77